Main page
METAR-TAF:

METAR-TAF

Airports :

Pago Pago International Airport

Pago Pago, United States Minor Outlying Islands

latitude: 14-20S, longitude: 170-43W, elevation: 3 m

Current weather observation

The report was made 1 hour and 6 minutes ago, at 07:50 UTC
Wind 13 kt from the East
Temperature 29°C
Humidity 84%
Pressure 1016 hPa
Visibility: 16.1 km
Scattered clouds at a height of 1800 ft
Broken clouds at a height of 4000 ft

METAR: NSTU 310750Z 09013KT 10SM SCT018 BKN040 29/26 A2999 RMK SHRAB25E45 SLP157 T02860258

Time: 21:56 (08:56 UTC)

Forecast

The report was made 3 hours and 36 minutes ago, at 05:20 UTC
Forecast valid from 31 at 06 UTC to 01 at 06 UTC
Wind 16 kt from the East
Visibility: 10 km
Scattered clouds at a height of 1800 ft
From 31 at 1200 UTC
Wind 15 kt from the East
Visibility: 10 km
Scattered clouds at a height of 1700 ft
Broken clouds at a height of 4000 ft
showers in vicinity

TAF: NSTU 310520Z 3106/0106 10016KT P6SM SCT018 FM311200 10015KT P6SM VCSH SCT017 BKN040

Weather observations and forecasts of more than 4000 airports (METAR and TAF reports).

The available stations are represented by yellow and red dots on the map.

Hover mouse over dot to see the name of the station.

Then click to see weather observations and forecasts.

To change the map : click on the green buttons with a black cross to zoom in, on the green button with a dash to zoom out, or on the green arrows for adjacent maps.


METAR-TAF: